createdAt,value
2022-09-17T00:02:35.325Z,63.96
2022-09-17T00:07:37.446Z,64.09
2022-09-17T00:12:39.317Z,64.15
2022-09-17T00:17:41.945Z,64.06
2022-09-17T00:22:43.724Z,63.99
2022-09-17T00:27:46.281Z,64.02
2022-09-17T00:32:48.044Z,64.08
2022-09-17T00:37:49.985Z,64.36
2022-09-17T00:42:53.419Z,64.26
2022-09-17T00:48:01.967Z,64.37
2022-09-17T00:53:12.455Z,64.31
2022-09-17T00:58:18.780Z,64.26
2022-09-17T01:03:20.858Z,64.48
2022-09-17T01:08:38.904Z,64.53
2022-09-17T01:13:55.578Z,64.56
2022-09-17T01:19:19.016Z,64.66
2022-09-17T01:24:47.935Z,64.68
2022-09-17T01:30:15.211Z,64.85
2022-09-17T01:35:49.123Z,64.95
2022-09-17T01:40:54.077Z,64.89
2022-09-17T01:46:20.388Z,64.92
2022-09-17T01:51:28.214Z,65.08
2022-09-17T01:56:42.482Z,65.20
2022-09-17T02:01:48.486Z,65.21
2022-09-17T02:06:58.972Z,65.12
2022-09-17T02:12:08.217Z,65.17
2022-09-17T02:17:28.428Z,65.40
2022-09-17T02:22:44.286Z,65.36
2022-09-17T02:27:48.403Z,65.29
2022-09-17T02:32:51.059Z,65.68
2022-09-17T02:37:53.414Z,65.56
2022-09-17T02:43:13.381Z,65.64
2022-09-17T02:48:30.699Z,65.80
2022-09-17T02:54:21.823Z,65.80
2022-09-17T03:00:05.189Z,65.80
2022-09-17T03:05:08.641Z,65.80
2022-09-17T03:10:11.147Z,66.03
2022-09-17T03:15:13.157Z,66.16
2022-09-17T03:20:16.202Z,66.26
2022-09-17T03:25:18.120Z,66.36
2022-09-17T03:30:20.052Z,66.64
2022-09-17T03:35:22.244Z,66.90
2022-09-17T03:40:24.261Z,66.92
2022-09-17T03:45:26.123Z,67.02
2022-09-17T03:50:27.984Z,67.14
2022-09-17T03:55:29.784Z,67.23
2022-09-17T04:00:32.004Z,67.32
2022-09-17T04:05:34.022Z,67.50
2022-09-17T04:10:35.907Z,67.57
2022-09-17T04:15:38.006Z,67.74
2022-09-17T04:20:40.079Z,67.79
2022-09-17T04:25:42.590Z,68.05
2022-09-17T04:30:44.489Z,68.18
2022-09-17T04:35:46.787Z,68.42
2022-09-17T04:40:48.830Z,68.56
2022-09-17T04:45:50.895Z,69.00
2022-09-17T04:50:52.783Z,69.29
2022-09-17T04:55:54.722Z,69.46
2022-09-17T05:00:56.674Z,69.53
2022-09-17T05:05:58.723Z,69.70
2022-09-17T05:11:00.597Z,69.74
2022-09-17T05:16:02.722Z,69.93
2022-09-17T05:21:04.641Z,70.09
2022-09-17T05:26:06.551Z,70.26
2022-09-17T05:31:09.022Z,70.24
2022-09-17T05:36:10.909Z,70.48
2022-09-17T05:41:12.769Z,70.75
2022-09-17T05:46:14.669Z,70.77
2022-09-17T05:51:16.724Z,70.83
2022-09-17T05:56:19.602Z,70.85
2022-09-17T06:01:21.691Z,70.97
2022-09-17T06:06:23.574Z,70.85
2022-09-17T06:11:25.557Z,71.09
2022-09-17T06:16:27.741Z,71.22
2022-09-17T06:21:30.113Z,71.17
2022-09-17T06:26:32.151Z,71.39
2022-09-17T06:31:34.241Z,71.58
2022-09-17T06:36:36.127Z,71.61
2022-09-17T06:41:39.117Z,71.89
2022-09-17T06:46:41.145Z,72.13
2022-09-17T06:51:43.044Z,72.49
2022-09-17T06:56:47.955Z,72.60
2022-09-17T07:01:49.801Z,72.79
2022-09-17T07:06:51.643Z,72.73
2022-09-17T07:11:53.459Z,72.72
2022-09-17T07:16:55.542Z,72.91
2022-09-17T07:21:57.556Z,72.99
2022-09-17T07:26:59.664Z,73.35
2022-09-17T07:32:01.744Z,73.77
2022-09-17T07:37:03.575Z,74.20
2022-09-17T07:42:05.562Z,74.57
2022-09-17T07:47:07.837Z,74.75
2022-09-17T07:52:09.831Z,74.90
2022-09-17T07:57:11.627Z,75.13
2022-09-17T08:02:14.419Z,75.25
2022-09-17T08:07:16.317Z,75.32
2022-09-17T08:12:19.606Z,75.51
2022-09-17T08:17:21.408Z,75.79
2022-09-17T08:22:23.431Z,75.76
2022-09-17T08:27:25.259Z,75.73
2022-09-17T08:32:30.196Z,75.81
2022-09-17T08:37:31.982Z,75.82
2022-09-17T08:42:47.202Z,75.94
2022-09-17T08:47:49.886Z,75.84
2022-09-17T08:53:21.340Z,76.17
2022-09-17T08:58:49.178Z,75.90
2022-09-17T09:04:25.040Z,75.50
2022-09-17T09:09:35.457Z,75.37
2022-09-17T09:14:59.915Z,75.25
2022-09-17T09:20:02.107Z,75.01
2022-09-17T09:25:13.223Z,74.78
2022-09-17T09:30:16.967Z,74.55
2022-09-17T09:35:31.292Z,74.08
2022-09-17T09:41:01.075Z,73.86
2022-09-17T09:46:08.911Z,73.31
2022-09-17T09:51:16.632Z,72.99
2022-09-17T09:56:32.446Z,72.83
2022-09-17T10:01:41.273Z,72.41
2022-09-17T10:06:43.644Z,72.31
2022-09-17T10:12:04.917Z,72.22
2022-09-17T10:17:21.022Z,71.95
2022-09-17T10:22:44.201Z,71.19
2022-09-17T10:27:48.451Z,71.12
2022-09-17T10:33:29.735Z,71.24
2022-09-17T10:38:36.614Z,71.24
2022-09-17T10:43:42.542Z,71.35
2022-09-17T10:48:54.194Z,71.05
2022-09-17T10:54:08.003Z,71.50
2022-09-17T10:59:39.549Z,71.80
2022-09-17T11:05:00.843Z,72.06
2022-09-17T11:10:05.403Z,72.09
2022-09-17T11:15:24.336Z,72.22
2022-09-17T11:20:53.625Z,72.28
2022-09-17T11:26:04.286Z,72.69
2022-09-17T11:31:33.453Z,72.95
2022-09-17T11:36:54.003Z,73.14
2022-09-17T11:41:57.954Z,73.26
2022-09-17T11:47:02.476Z,73.29
2022-09-17T11:52:07.013Z,73.43
2022-09-17T11:57:25.702Z,73.32
2022-09-17T12:02:30.602Z,73.21
2022-09-17T12:08:12.483Z,73.17
2022-09-17T12:13:22.470Z,73.18
2022-09-17T12:18:32.873Z,73.24
2022-09-17T12:23:43.337Z,73.27
2022-09-17T12:28:59.728Z,73.67
2022-09-17T12:34:32.492Z,73.61
2022-09-17T12:39:44.237Z,73.71
2022-09-17T12:45:05.448Z,73.78
2022-09-17T12:50:41.086Z,73.71
2022-09-17T12:55:48.481Z,73.55
2022-09-17T13:01:03.211Z,73.61
2022-09-17T13:06:13.967Z,73.61
2022-09-17T13:11:56.265Z,73.27
2022-09-17T13:16:58.036Z,72.65
2022-09-17T13:22:10.423Z,72.65
2022-09-17T13:27:26.234Z,72.37
2022-09-17T13:32:34.000Z,72.48
2022-09-17T13:37:41.543Z,71.87
2022-09-17T13:42:47.857Z,71.10
2022-09-17T13:47:57.756Z,70.77
2022-09-17T13:53:13.162Z,70.52
2022-09-17T13:58:21.044Z,70.05
2022-09-17T14:03:28.676Z,69.75
2022-09-17T14:08:58.519Z,69.39
2022-09-17T14:14:06.529Z,69.01
2022-09-17T14:19:50.981Z,68.51
2022-09-17T14:24:55.087Z,68.67
2022-09-17T14:29:59.777Z,68.43
2022-09-17T14:35:19.778Z,67.98
2022-09-17T14:40:24.114Z,67.40
2022-09-17T14:45:42.838Z,67.48
2022-09-17T14:50:44.694Z,66.73
2022-09-17T14:55:49.888Z,66.28
2022-09-17T15:00:53.634Z,66.45
2022-09-17T15:05:55.554Z,66.46
2022-09-17T15:11:11.025Z,66.39
2022-09-17T15:16:27.154Z,66.31
2022-09-17T15:21:31.947Z,66.37
2022-09-17T15:26:40.625Z,66.45
2022-09-17T15:31:42.611Z,66.62
2022-09-17T15:37:17.822Z,65.82
2022-09-17T15:42:19.540Z,64.73
2022-09-17T15:47:52.195Z,62.60
2022-09-17T15:53:11.298Z,62.69
2022-09-17T15:58:45.603Z,61.91
2022-09-17T16:04:01.765Z,62.02
2022-09-17T16:09:04.296Z,62.09
2022-09-17T16:14:06.104Z,61.69
2022-09-17T16:19:10.590Z,61.73
2022-09-17T16:24:12.413Z,62.02
2022-09-17T16:29:17.275Z,62.18
2022-09-17T16:34:19.047Z,62.18
2022-09-17T16:39:20.978Z,62.61
2022-09-17T16:44:22.791Z,62.50
2022-09-17T16:49:24.623Z,62.90
2022-09-17T16:54:26.391Z,62.93
2022-09-17T16:59:28.219Z,62.75
2022-09-17T17:04:29.982Z,62.84
2022-09-17T17:09:31.863Z,62.58
2022-09-17T17:14:33.679Z,62.85
2022-09-17T17:19:36.849Z,62.87
2022-09-17T17:24:38.743Z,62.83
2022-09-17T17:29:41.403Z,62.81
2022-09-17T17:34:43.236Z,62.56
2022-09-17T17:39:45.106Z,62.49
2022-09-17T17:44:47.744Z,62.19
2022-09-17T17:49:49.543Z,61.67
2022-09-17T17:54:51.424Z,61.84
2022-09-17T17:59:53.298Z,61.85
2022-09-17T18:04:55.083Z,61.95
2022-09-17T18:09:57.163Z,61.77
2022-09-17T18:14:59.034Z,61.74
2022-09-17T18:20:00.902Z,61.79
2022-09-17T18:25:02.638Z,61.72
2022-09-17T18:30:08.302Z,61.76
2022-09-17T18:35:10.089Z,61.79
2022-09-17T18:40:12.203Z,61.83
2022-09-17T18:45:14.076Z,62.07
2022-09-17T18:50:16.557Z,62.05
2022-09-17T18:55:18.417Z,62.38
2022-09-17T19:00:21.354Z,62.30
2022-09-17T19:05:24.218Z,62.56
2022-09-17T19:10:27.276Z,62.61
2022-09-17T19:15:30.595Z,62.74
2022-09-17T19:20:37.187Z,62.82
2022-09-17T19:25:39.328Z,63.02
2022-09-17T19:30:41.232Z,63.24
2022-09-17T19:35:43.017Z,63.21
2022-09-17T19:40:55.311Z,63.48
2022-09-17T19:46:05.630Z,63.53
2022-09-17T19:51:07.551Z,63.51
2022-09-17T19:56:18.507Z,63.94
2022-09-17T20:01:20.904Z,64.04
2022-09-17T20:06:24.100Z,64.40
2022-09-17T20:11:26.866Z,64.70
2022-09-17T20:16:29.897Z,65.10
2022-09-17T20:21:32.788Z,65.30
2022-09-17T20:26:35.543Z,65.57
2022-09-17T20:31:37.595Z,65.96
2022-09-17T20:36:39.540Z,66.23
2022-09-17T20:41:42.362Z,66.57
2022-09-17T20:46:44.158Z,66.82
2022-09-17T20:51:45.966Z,66.97
2022-09-17T20:56:47.814Z,67.19
2022-09-17T21:01:50.130Z,67.60
2022-09-17T21:06:53.789Z,67.84
2022-09-17T21:11:55.584Z,68.10
2022-09-17T21:16:57.517Z,68.37
2022-09-17T21:21:59.406Z,68.45
2022-09-17T21:27:01.151Z,68.62
2022-09-17T21:32:02.897Z,68.74
2022-09-17T21:37:05.663Z,68.88
2022-09-17T21:42:08.021Z,69.07
2022-09-17T21:47:12.425Z,69.04
2022-09-17T21:52:14.491Z,69.04
2022-09-17T21:57:16.312Z,69.07
2022-09-17T22:02:18.180Z,69.16
2022-09-17T22:07:20.711Z,69.57
2022-09-17T22:12:24.546Z,69.96
2022-09-17T22:17:26.401Z,70.07
2022-09-17T22:22:28.107Z,70.51
2022-09-17T22:27:29.886Z,70.58
2022-09-17T22:32:31.780Z,70.67
2022-09-17T22:37:33.520Z,70.85
2022-09-17T22:42:35.333Z,70.92
2022-09-17T22:47:42.965Z,70.84
2022-09-17T22:52:47.731Z,70.91
2022-09-17T22:57:49.495Z,71.02
2022-09-17T23:02:52.360Z,71.19
2022-09-17T23:07:54.341Z,71.57
2022-09-17T23:12:56.153Z,71.64
2022-09-17T23:17:58.051Z,71.99
2022-09-17T23:23:03.051Z,72.07
2022-09-17T23:28:05.037Z,72.39
2022-09-17T23:33:06.829Z,72.58
2022-09-17T23:38:08.733Z,72.99
2022-09-17T23:43:10.612Z,73.09
2022-09-17T23:48:12.423Z,73.21
2022-09-17T23:53:14.420Z,73.17
2022-09-17T23:58:16.628Z,73.46
